Time;durP1;ratioP1;P1;durP2;ratioP2;P2;SDS_P1;SDS_P2;PMS_P1;PMS_P2;Temp;Humidity;BMP_temperature;BMP_pressure;BME280_temperature;BME280_humidity;BME280_pressure;Samples;Min_cycle;Max_cycle;Signal;HPM_P1;HPM_P2
2022/03/29 00:01:55;;;;;;;33.05;19.50;;;7.00;99.90;;;;;;4945416;28;20146;-61
2022/03/29 00:04:22;;;;;;;32.20;20.15;;;6.90;99.90;;;;;;4939110;28;20612;-61
2022/03/29 00:06:48;;;;;;;32.22;19.83;;;6.90;99.90;;;;;;4942290;29;20048;-60
2022/03/29 00:09:14;;;;;;;30.88;20.13;;;6.90;99.90;;;;;;4936987;28;20071;-61
2022/03/29 00:11:40;;;;;;;27.55;17.77;;;6.90;99.90;;;;;;4934342;28;20126;-60
2022/03/29 00:14:06;;;;;;;29.20;18.52;;;7.00;99.90;;;;;;4937246;28;20114;-60
2022/03/29 00:16:33;;;;;;;31.15;20.05;;;6.90;99.90;;;;;;4951647;28;20047;-60
2022/03/29 00:18:59;;;;;;;30.83;19.45;;;6.90;99.90;;;;;;4934533;29;20392;-60
2022/03/29 00:21:25;;;;;;;32.28;19.73;;;7.00;99.90;;;;;;4950081;28;20063;-61
2022/03/29 00:23:51;;;;;;;31.38;19.42;;;6.90;99.90;;;;;;4916399;29;20546;-61
2022/03/29 00:26:17;;;;;;;32.63;19.60;;;6.90;99.90;;;;;;4936825;29;20078;-61
2022/03/29 00:28:43;;;;;;;30.17;19.15;;;7.00;99.90;;;;;;4933893;28;20048;-59
2022/03/29 00:31:10;;;;;;;27.55;19.83;;;6.90;99.90;;;;;;4935468;29;20059;-61
2022/03/29 00:33:36;;;;;;;35.58;20.27;;;7.00;99.90;;;;;;4937624;28;20083;-61
2022/03/29 00:36:02;;;;;;;34.08;19.98;;;7.00;99.90;;;;;;4931819;29;20550;-59
2022/03/29 00:38:27;;;;;;;32.65;19.60;;;7.00;99.90;;;;;;4936541;28;20087;-61
2022/03/29 00:40:54;;;;;;;29.63;18.42;;;7.00;99.90;;;;;;4947314;28;20054;-61
2022/03/29 00:43:20;;;;;;;30.52;18.15;;;6.90;99.90;;;;;;4936066;28;20134;-60
2022/03/29 00:45:46;;;;;;;33.53;18.98;;;6.90;99.90;;;;;;4937946;29;20051;-60
2022/03/29 00:48:13;;;;;;;33.28;20.65;;;7.00;99.90;;;;;;4932178;29;20421;-60
2022/03/29 00:50:41;;;;;;;33.22;21.55;;;6.90;99.90;;;;;;4934509;29;20040;-61
2022/03/29 00:53:08;;;;;;;37.45;22.17;;;6.80;99.90;;;;;;4932934;29;20058;-60
2022/03/29 00:55:34;;;;;;;37.83;21.67;;;6.90;99.90;;;;;;4933993;29;20461;-60
2022/03/29 00:58:06;;;;;;;34.05;21.15;;;6.90;99.90;;;;;;4932393;28;20047;-60
2022/03/29 01:06:16;;;;;;;33.90;21.70;;;6.80;99.90;;;;;;4949172;28;20082;-61
2022/03/29 01:08:44;;;;;;;38.63;22.30;;;6.90;99.90;;;;;;4954354;28;21311;-60
2022/03/29 01:11:12;;;;;;;37.95;22.20;;;6.80;99.90;;;;;;4955546;28;20586;-60
2022/03/29 01:13:39;;;;;;;36.42;21.65;;;6.80;99.90;;;;;;4954176;28;20041;-60
2022/03/29 01:18:51;;;;;;;31.80;20.02;;;6.80;99.90;;;;;;4952314;28;20065;-60
2022/03/29 01:21:20;;;;;;;37.40;21.17;;;6.80;99.90;;;;;;4953402;28;20047;-60
2022/03/29 01:23:48;;;;;;;33.97;20.65;;;6.80;99.90;;;;;;4955074;28;20043;-60
2022/03/29 01:26:18;;;;;;;34.28;20.83;;;6.80;99.90;;;;;;4953470;28;23027;-61
2022/03/29 01:28:44;;;;;;;36.92;22.10;;;6.80;99.90;;;;;;4953765;28;20157;-60
2022/03/29 01:31:11;;;;;;;33.28;20.55;;;6.80;99.90;;;;;;4951464;28;20051;-61
2022/03/29 01:33:38;;;;;;;39.63;21.38;;;6.80;99.90;;;;;;4954711;28;20466;-61
2022/03/29 01:36:04;;;;;;;35.97;21.35;;;6.80;99.90;;;;;;4953141;28;20050;-60
2022/03/29 01:38:30;;;;;;;36.08;21.77;;;6.80;99.90;;;;;;4953351;28;20047;-60
2022/03/29 01:41:05;;;;;;;38.33;21.90;;;6.80;99.90;;;;;;4955542;28;20500;-60
2022/03/29 01:43:34;;;;;;;36.65;22.20;;;6.80;99.90;;;;;;4950167;28;20061;-61
2022/03/29 01:46:00;;;;;;;34.75;21.05;;;6.80;99.90;;;;;;4936461;28;20050;-61
2022/03/29 01:48:26;;;;;;;35.50;20.83;;;6.70;99.90;;;;;;4949938;28;20055;-61
2022/03/29 01:50:52;;;;;;;42.20;21.60;;;6.70;99.90;;;;;;4956183;28;20436;-60
2022/03/29 01:53:25;;;;;;;44.88;21.88;;;6.70;99.90;;;;;;4951845;28;20043;-60
2022/03/29 01:55:59;;;;;;;35.88;21.27;;;6.90;99.90;;;;;;4951150;28;20450;-59
2022/03/29 01:58:27;;;;;;;38.33;20.63;;;6.70;99.90;;;;;;4954128;28;20138;-60
2022/03/29 02:00:53;;;;;;;34.80;21.55;;;6.70;99.90;;;;;;4951756;28;20046;-61
2022/03/29 02:03:19;;;;;;;35.05;20.88;;;6.70;99.90;;;;;;4953143;28;20043;-61
2022/03/29 02:05:45;;;;;;;30.00;20.13;;;6.70;99.90;;;;;;4947832;28;20134;-60
2022/03/29 02:08:11;;;;;;;41.67;21.38;;;6.70;99.90;;;;;;4940912;28;20440;-60
2022/03/29 02:10:38;;;;;;;34.20;20.88;;;6.70;99.90;;;;;;4960563;28;20054;-61
2022/03/29 02:13:04;;;;;;;36.38;20.83;;;6.70;99.90;;;;;;4943109;28;20909;-60
2022/03/29 02:15:30;;;;;;;38.17;21.38;;;6.70;99.90;;;;;;4946513;28;20393;-60
2022/03/29 02:17:56;;;;;;;37.63;21.58;;;6.70;99.90;;;;;;4929697;28;20051;-61
2022/03/29 02:20:23;;;;;;;35.53;21.23;;;6.70;99.90;;;;;;4950781;28;20042;-59
2022/03/29 02:22:50;;;;;;;40.67;21.98;;;6.70;99.90;;;;;;4948022;28;20043;-60
2022/03/29 02:25:16;;;;;;;34.17;21.02;;;6.70;99.90;;;;;;4946580;28;20062;-61
2022/03/29 02:27:43;;;;;;;35.75;21.48;;;6.70;99.90;;;;;;4932509;28;20051;-60
2022/03/29 02:30:12;;;;;;;38.95;20.38;;;6.70;99.90;;;;;;4942085;28;20087;-61
2022/03/29 02:32:38;;;;;;;34.97;20.98;;;6.70;99.90;;;;;;4945725;28;20040;-60
2022/03/29 02:35:05;;;;;;;35.13;21.23;;;6.70;99.90;;;;;;4945677;28;20062;-60
2022/03/29 02:37:30;;;;;;;31.60;20.50;;;6.60;99.90;;;;;;4945251;28;20051;-61
2022/03/29 02:39:56;;;;;;;38.03;22.02;;;6.60;99.90;;;;;;4948274;28;20085;-60
2022/03/29 02:42:22;;;;;;;34.75;20.75;;;6.60;99.90;;;;;;4950701;28;20043;-60
2022/03/29 02:44:48;;;;;;;37.88;20.52;;;6.70;99.90;;;;;;4945118;28;20526;-61
2022/03/29 02:47:14;;;;;;;35.60;21.85;;;6.70;99.90;;;;;;4940682;28;20481;-61
2022/03/29 02:49:40;;;;;;;38.50;22.15;;;6.70;99.90;;;;;;4949106;28;20047;-60
2022/03/29 02:52:06;;;;;;;37.55;21.25;;;6.70;99.90;;;;;;4941317;28;20459;-60
2022/03/29 02:54:31;;;;;;;37.00;21.48;;;6.70;99.90;;;;;;4946868;28;20046;-59
2022/03/29 02:56:57;;;;;;;38.80;21.60;;;6.70;99.90;;;;;;4949766;28;20039;-61
2022/03/29 02:59:23;;;;;;;38.72;21.98;;;6.70;99.90;;;;;;4948493;28;20043;-60
2022/03/29 03:01:49;;;;;;;36.42;20.23;;;6.70;99.90;;;;;;4943827;28;20083;-60
2022/03/29 03:04:15;;;;;;;36.70;21.58;;;6.70;99.90;;;;;;4946319;28;20047;-61
2022/03/29 03:06:41;;;;;;;39.17;21.58;;;6.60;99.90;;;;;;4925930;28;20085;-60
2022/03/29 03:09:08;;;;;;;38.00;21.38;;;6.70;99.90;;;;;;4944151;28;20069;-61
2022/03/29 03:11:37;;;;;;;43.42;21.55;;;6.60;99.90;;;;;;4947478;28;20065;-60
2022/03/29 03:14:03;;;;;;;43.00;21.67;;;6.70;99.90;;;;;;4947617;28;20039;-61
2022/03/29 03:16:29;;;;;;;40.58;21.35;;;6.70;99.90;;;;;;4924024;28;20074;-60
2022/03/29 03:18:55;;;;;;;35.47;21.33;;;6.70;99.90;;;;;;4949396;28;20048;-59
2022/03/29 03:21:21;;;;;;;35.97;21.83;;;6.70;99.90;;;;;;4943193;28;20050;-61
2022/03/29 03:23:48;;;;;;;32.65;21.05;;;6.70;99.90;;;;;;4966611;28;20503;-60
2022/03/29 03:26:14;;;;;;;43.42;23.15;;;6.70;99.90;;;;;;4943940;28;20047;-60
2022/03/29 03:28:40;;;;;;;45.28;22.00;;;6.70;99.90;;;;;;4951988;28;20051;-60
2022/03/29 03:31:06;;;;;;;32.45;20.83;;;6.70;99.90;;;;;;4950211;28;20050;-61
2022/03/29 03:33:31;;;;;;;37.55;20.65;;;6.70;99.90;;;;;;4949800;28;20551;-60
2022/03/29 03:35:57;;;;;;;37.53;21.00;;;6.70;99.90;;;;;;4950625;28;20039;-60
2022/03/29 03:38:23;;;;;;;37.58;21.77;;;6.70;99.90;;;;;;4956142;28;20122;-60
2022/03/29 03:40:49;;;;;;;35.78;20.35;;;6.70;99.90;;;;;;4957841;28;20113;-60
2022/03/29 03:43:15;;;;;;;38.05;21.33;;;6.80;99.90;;;;;;4950384;28;20054;-61
2022/03/29 03:45:41;;;;;;;34.95;21.00;;;6.80;99.90;;;;;;4948992;28;20142;-61
2022/03/29 03:48:07;;;;;;;33.80;20.95;;;6.80;99.90;;;;;;4932806;28;20715;-60
2022/03/29 03:50:33;;;;;;;35.05;21.15;;;6.70;99.90;;;;;;4949693;28;20058;-60
2022/03/29 03:53:00;;;;;;;37.78;22.13;;;6.70;99.90;;;;;;4930035;28;20059;-60
2022/03/29 03:55:26;;;;;;;38.05;21.50;;;6.70;99.90;;;;;;4954540;28;20125;-61
2022/03/29 03:57:52;;;;;;;33.22;19.83;;;6.80;99.90;;;;;;4948552;28;20043;-59
2022/03/29 04:00:21;;;;;;;36.22;19.73;;;6.70;99.90;;;;;;4947979;28;20047;-60
2022/03/29 04:02:50;;;;;;;35.50;20.83;;;6.70;99.90;;;;;;4940446;28;20058;-61
2022/03/29 04:05:16;;;;;;;39.30;20.95;;;6.70;99.90;;;;;;4951782;28;20059;-61
2022/03/29 04:07:42;;;;;;;40.63;21.90;;;6.80;99.90;;;;;;4949042;28;20049;-61
2022/03/29 04:10:10;;;;;;;38.83;21.20;;;6.80;99.90;;;;;;4947182;28;20105;-60
2022/03/29 04:12:36;;;;;;;36.25;21.95;;;6.80;99.90;;;;;;4949192;28;20058;-60
2022/03/29 04:15:03;;;;;;;37.10;21.50;;;6.70;99.90;;;;;;4952646;28;20489;-60
2022/03/29 04:17:28;;;;;;;35.60;20.33;;;6.80;99.90;;;;;;4945128;28;20517;-61
2022/03/29 04:19:55;;;;;;;31.55;19.70;;;6.80;99.90;;;;;;4945346;28;20043;-62
2022/03/29 04:22:21;;;;;;;35.83;20.92;;;6.80;99.90;;;;;;4939589;28;20077;-60
2022/03/29 04:24:47;;;;;;;37.28;20.90;;;6.80;99.90;;;;;;4944719;28;20800;-60
2022/03/29 04:27:13;;;;;;;37.00;20.73;;;6.70;99.90;;;;;;4950176;28;20501;-60
2022/03/29 04:29:39;;;;;;;35.67;21.92;;;6.70;99.90;;;;;;4947302;28;20087;-60
2022/03/29 04:32:05;;;;;;;36.08;21.48;;;6.70;99.90;;;;;;4949529;28;20052;-60
2022/03/29 04:34:32;;;;;;;37.55;21.23;;;6.70;99.90;;;;;;4942844;28;20129;-60
2022/03/29 04:36:59;;;;;;;40.72;21.55;;;6.70;99.90;;;;;;4947628;28;20047;-61
2022/03/29 04:39:25;;;;;;;36.47;20.98;;;6.70;99.90;;;;;;4954398;28;20053;-60
2022/03/29 04:41:51;;;;;;;44.80;23.27;;;6.70;99.90;;;;;;4954026;28;20094;-61
2022/03/29 04:44:17;;;;;;;37.40;21.67;;;6.70;99.90;;;;;;4949348;28;20089;-60
2022/03/29 04:46:43;;;;;;;38.17;21.77;;;6.70;99.90;;;;;;4946204;28;20083;-60
2022/03/29 04:49:09;;;;;;;36.65;21.80;;;6.70;99.90;;;;;;4953034;28;20181;-60
2022/03/29 04:51:35;;;;;;;38.20;22.13;;;6.80;99.90;;;;;;4950098;28;20074;-60
2022/03/29 04:54:01;;;;;;;40.70;22.95;;;6.70;99.90;;;;;;4956171;28;20109;-61
2022/03/29 04:56:28;;;;;;;37.60;20.77;;;6.70;99.90;;;;;;4949402;28;20071;-60
2022/03/29 04:58:53;;;;;;;37.90;22.88;;;6.70;99.90;;;;;;4946515;28;20043;-60
2022/03/29 05:01:20;;;;;;;38.53;22.23;;;6.70;99.90;;;;;;4948088;28;20086;-60
2022/03/29 05:03:46;;;;;;;39.38;23.05;;;6.70;99.90;;;;;;4952760;28;20126;-61
2022/03/29 05:06:12;;;;;;;37.03;22.80;;;6.70;99.90;;;;;;4950377;28;20158;-59
2022/03/29 05:08:37;;;;;;;43.85;24.25;;;6.70;99.90;;;;;;4947497;28;21469;-60
2022/03/29 05:11:03;;;;;;;37.30;23.33;;;6.70;99.90;;;;;;4967331;28;20042;-60
2022/03/29 05:13:29;;;;;;;42.40;23.58;;;6.70;99.90;;;;;;4916550;28;20489;-59
2022/03/29 05:15:55;;;;;;;41.78;23.20;;;6.70;99.90;;;;;;4962240;28;20045;-61
2022/03/29 05:18:21;;;;;;;42.60;23.67;;;6.70;99.90;;;;;;4939028;28;20056;-61
2022/03/29 05:20:47;;;;;;;39.42;24.25;;;6.60;99.90;;;;;;4944108;28;20143;-61
2022/03/29 05:23:16;;;;;;;38.67;23.05;;;6.70;99.90;;;;;;4947186;28;20097;-61
2022/03/29 05:25:41;;;;;;;42.08;25.17;;;6.80;99.90;;;;;;4945100;28;20043;-60
2022/03/29 05:28:09;;;;;;;45.70;25.27;;;6.70;99.90;;;;;;4940940;28;20677;-61
2022/03/29 05:30:35;;;;;;;38.25;24.35;;;6.70;99.90;;;;;;4940590;28;20054;-59
2022/03/29 05:33:02;;;;;;;44.10;24.70;;;6.70;99.90;;;;;;4944091;28;20081;-59
2022/03/29 05:35:30;;;;;;;48.20;26.42;;;6.70;99.90;;;;;;4962105;28;20079;-60
2022/03/29 05:37:58;;;;;;;43.00;25.20;;;6.70;99.90;;;;;;4948032;28;20043;-60
2022/03/29 05:40:25;;;;;;;43.00;24.90;;;6.80;99.90;;;;;;4944451;28;20624;-61
2022/03/29 05:42:52;;;;;;;44.95;24.00;;;6.70;99.90;;;;;;4959716;28;20055;-59
2022/03/29 05:45:18;;;;;;;42.78;24.95;;;6.70;99.90;;;;;;4945729;28;20117;-61
2022/03/29 05:50:30;;;;;;;48.15;26.10;;;6.70;99.90;;;;;;4948893;28;20098;-60
2022/03/29 05:52:56;;;;;;;47.33;26.23;;;6.70;99.90;;;;;;4931719;28;20570;-60
2022/03/29 05:55:23;;;;;;;42.13;26.20;;;6.70;99.90;;;;;;4944059;28;20047;-60
2022/03/29 05:57:49;;;;;;;41.40;24.15;;;6.80;99.90;;;;;;4949284;28;20051;-60
2022/03/29 06:00:17;;;;;;;40.05;25.20;;;6.80;99.90;;;;;;4951436;28;20046;-60
2022/03/29 06:02:43;;;;;;;40.83;25.02;;;6.80;99.90;;;;;;4950432;28;20149;-60
2022/03/29 06:05:10;;;;;;;43.70;25.63;;;6.80;99.90;;;;;;4940694;28;20094;-60
2022/03/29 06:07:36;;;;;;;43.50;24.85;;;6.80;99.90;;;;;;4951622;28;20746;-60
2022/03/29 06:10:04;;;;;;;54.55;27.58;;;6.80;99.90;;;;;;4929491;28;20564;-60
2022/03/29 06:12:30;;;;;;;44.70;25.30;;;6.80;99.90;;;;;;4946781;28;20165;-60
2022/03/29 06:14:56;;;;;;;41.53;25.00;;;6.80;99.90;;;;;;4943125;28;20512;-60
2022/03/29 06:17:22;;;;;;;49.55;26.35;;;6.80;99.90;;;;;;4929553;28;20187;-60
2022/03/29 06:19:48;;;;;;;41.33;25.77;;;6.80;99.90;;;;;;4947324;28;20043;-60
2022/03/29 06:22:14;;;;;;;47.20;26.35;;;6.80;99.90;;;;;;4938166;28;20051;-60
2022/03/29 06:24:40;;;;;;;46.67;27.20;;;6.80;99.90;;;;;;4945628;28;20098;-61
2022/03/29 06:27:06;;;;;;;45.92;27.55;;;6.90;99.90;;;;;;4946015;28;20058;-60
2022/03/29 06:29:34;;;;;;;45.53;26.50;;;6.90;99.90;;;;;;4949847;28;20461;-60
2022/03/29 06:32:01;;;;;;;45.97;27.33;;;6.90;99.90;;;;;;4950612;28;20117;-60
2022/03/29 06:34:29;;;;;;;45.83;26.30;;;6.90;99.90;;;;;;4948798;28;20158;-60
2022/03/29 06:36:55;;;;;;;39.67;25.23;;;6.90;99.90;;;;;;4945418;28;20048;-60
2022/03/29 06:39:21;;;;;;;50.90;28.10;;;6.90;99.90;;;;;;4940879;28;20188;-60
2022/03/29 06:41:47;;;;;;;46.97;25.75;;;6.90;99.90;;;;;;4942337;28;20063;-62
2022/03/29 06:44:13;;;;;;;44.33;25.73;;;6.90;99.90;;;;;;4947277;28;20085;-59
2022/03/29 06:46:42;;;;;;;42.80;24.95;;;6.90;99.90;;;;;;4946309;28;20047;-60
2022/03/29 06:49:08;;;;;;;46.35;25.70;;;7.00;99.90;;;;;;4937749;28;20530;-61
2022/03/29 06:51:35;;;;;;;43.50;25.30;;;7.00;99.90;;;;;;4932030;28;20712;-60
2022/03/29 06:54:04;;;;;;;44.13;26.88;;;7.00;99.90;;;;;;4946003;28;20047;-61
2022/03/29 06:56:31;;;;;;;46.80;26.33;;;7.00;99.90;;;;;;4938346;28;20043;-61
2022/03/29 06:59:00;;;;;;;40.90;25.83;;;7.00;99.90;;;;;;4926577;28;20047;-60
2022/03/29 07:01:26;;;;;;;49.85;27.73;;;7.10;99.90;;;;;;4939822;28;20649;-59
2022/03/29 07:03:51;;;;;;;40.28;24.83;;;7.00;99.90;;;;;;4950636;28;20061;-60
2022/03/29 07:06:17;;;;;;;43.33;25.58;;;7.10;99.90;;;;;;4949303;28;20170;-61
2022/03/29 07:11:28;;;;;;;41.70;25.10;;;7.10;99.90;;;;;;4942359;28;20059;-60
2022/03/29 07:13:53;;;;;;;45.17;24.83;;;7.20;99.90;;;;;;4948269;28;20396;-61
2022/03/29 07:16:20;;;;;;;50.45;26.30;;;7.20;99.90;;;;;;4941621;28;20049;-60
2022/03/29 07:18:46;;;;;;;49.25;25.00;;;7.30;99.90;;;;;;4944400;28;20082;-60
2022/03/29 07:21:12;;;;;;;47.38;25.55;;;7.30;99.90;;;;;;4943488;28;20141;-61
2022/03/29 07:23:40;;;;;;;45.28;25.25;;;7.30;99.90;;;;;;4948281;28;20586;-60
2022/03/29 07:26:06;;;;;;;48.58;24.58;;;7.40;99.90;;;;;;4947775;28;20069;-61
2022/03/29 07:28:32;;;;;;;52.22;25.02;;;7.40;99.90;;;;;;4913250;28;20053;-61
2022/03/29 07:30:58;;;;;;;48.60;23.75;;;7.50;99.90;;;;;;4919781;28;20043;-62
2022/03/29 07:33:24;;;;;;;41.20;24.38;;;7.60;99.90;;;;;;4938300;28;20178;-61
2022/03/29 07:35:50;;;;;;;42.65;24.27;;;7.60;99.90;;;;;;4941145;28;21189;-60
2022/03/29 07:38:16;;;;;;;47.13;23.70;;;7.70;99.90;;;;;;4941546;28;20058;-62
2022/03/29 07:40:43;;;;;;;43.20;23.05;;;7.70;99.90;;;;;;4945659;28;20051;-60
2022/03/29 07:43:12;;;;;;;46.78;24.70;;;7.80;99.90;;;;;;4941419;28;20047;-60
2022/03/29 07:45:38;;;;;;;47.65;23.45;;;7.80;99.90;;;;;;4940507;28;20150;-60
2022/03/29 07:48:05;;;;;;;47.45;23.80;;;7.90;99.90;;;;;;4923680;28;20055;-60
2022/03/29 07:50:33;;;;;;;48.20;22.83;;;8.00;99.90;;;;;;4938383;28;20051;-60
2022/03/29 07:53:00;;;;;;;40.20;22.08;;;8.00;99.90;;;;;;4943083;28;20043;-61
2022/03/29 07:55:27;;;;;;;38.65;21.90;;;8.10;99.90;;;;;;4945726;28;20098;-61
2022/03/29 07:57:53;;;;;;;38.05;22.35;;;8.10;99.90;;;;;;4940823;28;20046;-60
2022/03/29 08:00:31;;;;;;;46.67;23.55;;;8.10;99.90;;;;;;4924312;28;20181;-60
2022/03/29 08:03:08;;;;;;;44.40;24.05;;;8.20;99.90;;;;;;4936560;28;20083;-61
2022/03/29 08:05:35;;;;;;;44.30;22.48;;;8.20;99.90;;;;;;4930761;28;20134;-60
2022/03/29 08:08:01;;;;;;;44.00;21.63;;;8.30;99.90;;;;;;4938231;28;20059;-61
2022/03/29 08:10:29;;;;;;;44.45;23.05;;;8.40;99.90;;;;;;4943176;28;20051;-60
2022/03/29 08:12:56;;;;;;;39.72;21.92;;;8.40;99.90;;;;;;4939019;28;20475;-61
2022/03/29 08:15:23;;;;;;;45.85;21.73;;;8.50;99.90;;;;;;4945349;28;20150;-60
2022/03/29 08:17:48;;;;;;;39.42;21.70;;;8.50;99.90;;;;;;4939507;28;20054;-59
2022/03/29 08:20:15;;;;;;;44.45;21.58;;;8.50;99.90;;;;;;4951678;28;20535;-59
2022/03/29 08:22:47;;;;;;;41.83;20.05;;;8.50;99.90;;;;;;4939767;28;20051;-60
2022/03/29 08:25:18;;;;;;;42.63;18.65;;;8.50;99.90;;;;;;4943949;28;20065;-61
2022/03/29 08:27:45;;;;;;;36.35;16.50;;;8.50;99.90;;;;;;4943044;28;20713;-61
2022/03/29 08:30:12;;;;;;;40.88;17.23;;;8.50;99.90;;;;;;4946904;28;20113;-61
2022/03/29 08:32:39;;;;;;;40.03;18.02;;;8.50;99.90;;;;;;4928410;28;20125;-60
2022/03/29 08:35:07;;;;;;;37.38;15.30;;;8.50;99.90;;;;;;4943666;28;20524;-61
2022/03/29 08:37:35;;;;;;;38.80;15.10;;;8.50;99.90;;;;;;4929388;28;20051;-60
2022/03/29 08:40:03;;;;;;;31.85;13.90;;;8.50;99.90;;;;;;4950025;28;20067;-60
2022/03/29 08:42:29;;;;;;;33.63;14.48;;;8.50;99.90;;;;;;4943247;28;20074;-60
2022/03/29 08:44:55;;;;;;;34.38;13.88;;;8.50;99.90;;;;;;4912728;28;20118;-61
2022/03/29 08:47:21;;;;;;;29.27;13.05;;;8.60;99.90;;;;;;4941117;28;20061;-60
2022/03/29 08:49:49;;;;;;;32.70;12.73;;;8.60;99.90;;;;;;4930837;28;20046;-60
2022/03/29 08:52:20;;;;;;;27.50;12.75;;;8.70;99.90;;;;;;4941909;28;20055;-60
2022/03/29 08:54:47;;;;;;;39.40;12.95;;;8.70;99.90;;;;;;4946497;28;20051;-61
2022/03/29 08:57:14;;;;;;;31.98;12.13;;;8.80;99.90;;;;;;4942489;28;20047;-60
2022/03/29 08:59:42;;;;;;;33.30;12.82;;;8.90;99.90;;;;;;4924902;28;20133;-62
2022/03/29 09:02:13;;;;;;;33.03;12.13;;;9.00;99.90;;;;;;4944100;28;20050;-61
2022/03/29 09:04:39;;;;;;;32.38;12.77;;;9.00;99.90;;;;;;4940248;28;20659;-60
2022/03/29 09:07:06;;;;;;;37.58;12.70;;;9.00;99.90;;;;;;4941294;28;20051;-62
2022/03/29 09:09:38;;;;;;;30.60;12.20;;;9.00;99.90;;;;;;4942690;28;20114;-60
2022/03/29 09:12:13;;;;;;;;;;;9.10;99.90;;;;;;4945152;28;20519;-60
2022/03/29 09:14:54;;;;;;;31.02;12.45;;;9.10;99.90;;;;;;4947865;28;19973;-60
2022/03/29 09:17:38;;;;;;;32.25;12.68;;;9.20;99.90;;;;;;4929982;28;20098;-60
2022/03/29 09:20:10;;;;;;;32.20;12.38;;;9.30;99.90;;;;;;4944756;28;20105;-61
2022/03/29 09:22:37;;;;;;;41.03;11.93;;;9.40;99.90;;;;;;4930037;28;20043;-61
2022/03/29 09:25:04;;;;;;;36.30;11.45;;;9.40;99.90;;;;;;4942993;28;20520;-60
2022/03/29 09:27:46;;;;;;;28.67;11.45;;;9.50;99.90;;;;;;4943652;28;20059;-60
2022/03/29 09:30:12;;;;;;;28.50;11.05;;;9.50;99.90;;;;;;4944246;28;20070;-60
2022/03/29 09:33:04;;;;;;;30.88;11.60;;;9.60;99.90;;;;;;4924163;28;22037;-62
2022/03/29 09:35:32;;;;;;;35.10;11.82;;;9.70;99.90;;;;;;4948870;28;20049;-62
2022/03/29 09:37:59;;;;;;;26.42;11.00;;;9.80;99.90;;;;;;4945773;28;20378;-60
2022/03/29 09:40:34;;;;;;;34.40;10.18;;;9.90;99.90;;;;;;4945014;28;20054;-60
2022/03/29 09:43:01;;;;;;;32.15;9.77;;;10.00;99.90;;;;;;4956137;28;20054;-61
2022/03/29 09:45:48;;;;;;;27.67;10.10;;;10.00;99.90;;;;;;4944580;28;20035;-62
2022/03/29 09:48:40;;;;;;;31.15;11.02;;;10.00;99.90;;;;;;4944871;28;20126;-60
2022/03/29 09:51:09;;;;;;;24.35;9.05;;;9.90;99.90;;;;;;4922382;28;20070;-60
2022/03/29 09:53:45;;;;;;;27.98;9.77;;;9.90;99.90;;;;;;4946113;28;20060;-60
2022/03/29 09:56:13;;;;;;;36.38;9.80;;;10.00;99.90;;;;;;4944220;28;20043;-61
2022/03/29 09:58:39;;;;;;;28.73;9.73;;;10.00;99.90;;;;;;4943654;28;20396;-60
2022/03/29 10:01:06;;;;;;;31.77;10.25;;;10.00;99.90;;;;;;4944087;28;20038;-61
2022/03/29 10:03:36;;;;;;;33.70;9.93;;;10.00;99.90;;;;;;4945115;28;20043;-60
2022/03/29 10:06:04;;;;;;;29.98;9.32;;;10.00;99.90;;;;;;4915635;28;20067;-61
2022/03/29 10:11:22;;;;;;;25.33;9.75;;;10.00;99.90;;;;;;4943597;28;20043;-60
2022/03/29 10:13:49;;;;;;;30.23;9.18;;;10.00;99.90;;;;;;4943119;28;20062;-60
2022/03/29 10:16:16;;;;;;;25.05;9.38;;;10.00;99.90;;;;;;4940155;28;20082;-60
2022/03/29 10:18:45;;;;;;;24.13;9.35;;;10.00;99.90;;;;;;4945936;28;20101;-61
2022/03/29 10:21:13;;;;;;;24.67;7.95;;;10.00;99.90;;;;;;4949686;28;20059;-60
2022/03/29 10:23:42;;;;;;;29.48;8.90;;;10.10;99.90;;;;;;4949915;28;20174;-60
2022/03/29 10:26:09;;;;;;;26.40;7.68;;;10.30;99.90;;;;;;4945589;28;20470;-60
2022/03/29 10:28:35;;;;;;;28.30;8.30;;;10.70;99.90;;;;;;4950552;28;20050;-60
2022/03/29 10:31:03;;;;;;;28.08;7.88;;;10.90;99.90;;;;;;4936842;28;20425;-61
2022/03/29 10:33:31;;;;;;;26.80;8.18;;;11.00;99.90;;;;;;4945378;28;20113;-60
2022/03/29 10:36:00;;;;;;;25.95;8.20;;;11.10;99.90;;;;;;4955045;28;20416;-61
2022/03/29 10:39:05;;;;;;;24.73;8.07;;;11.10;99.90;;;;;;4947078;28;20050;-60
2022/03/29 10:41:33;;;;;;;22.05;8.20;;;11.20;99.90;;;;;;4901378;29;20254;-59
2022/03/29 10:44:14;;;;;;;26.27;8.70;;;11.30;99.90;;;;;;4916184;28;20051;-60
2022/03/29 10:46:48;;;;;;;27.08;8.48;;;11.30;99.90;;;;;;4927196;28;20083;-60
2022/03/29 10:49:28;;;;;;;25.88;7.78;;;11.30;99.90;;;;;;4945632;28;20047;-60
2022/03/29 10:52:05;;;;;;;24.15;7.10;;;11.30;99.90;;;;;;4946574;28;20358;-60
2022/03/29 10:54:41;;;;;;;21.05;7.63;;;11.20;99.90;;;;;;4946888;28;20043;-61
2022/03/29 10:57:24;;;;;;;25.67;7.75;;;11.20;99.90;;;;;;4941947;28;20078;-60
2022/03/29 10:59:58;;;;;;;24.05;8.30;;;11.30;99.90;;;;;;4942836;28;20085;-61
2022/03/29 11:02:25;;;;;;;28.58;7.20;;;11.50;99.90;;;;;;4937558;28;20050;-60
2022/03/29 11:05:05;;;;;;;27.27;8.05;;;11.50;99.90;;;;;;4944432;28;20063;-59
2022/03/29 11:07:52;;;;;;;24.15;7.28;;;11.50;99.90;;;;;;4936811;28;20055;-60
2022/03/29 11:10:20;;;;;;;29.50;8.23;;;11.50;99.90;;;;;;4930779;28;20434;-61
2022/03/29 11:12:57;;;;;;;27.95;7.85;;;11.40;99.90;;;;;;4939183;28;20173;-60
2022/03/29 11:15:27;;;;;;;30.67;8.90;;;11.40;99.90;;;;;;4936327;28;20047;-60
2022/03/29 11:17:57;;;;;;;22.75;8.10;;;11.30;99.90;;;;;;4939674;28;20066;-61
2022/03/29 11:20:38;;;;;;;22.08;8.18;;;11.10;99.90;;;;;;4940817;28;20052;-61
2022/03/29 11:23:11;;;;;;;22.38;8.45;;;11.10;99.90;;;;;;4929217;28;20121;-61
2022/03/29 11:25:42;;;;;;;26.65;8.45;;;11.00;99.90;;;;;;4939814;28;20039;-60
2022/03/29 11:28:13;;;;;;;25.02;6.85;;;11.00;99.90;;;;;;4916893;28;20081;-60
2022/03/29 11:30:39;;;;;;;29.33;8.70;;;10.90;99.90;;;;;;4937928;28;20062;-60
2022/03/29 11:33:06;;;;;;;21.20;7.80;;;10.90;99.90;;;;;;4928938;28;20047;-60
2022/03/29 11:35:34;;;;;;;22.33;7.93;;;10.90;99.90;;;;;;4940331;28;20511;-60
2022/03/29 11:38:14;;;;;;;23.83;8.30;;;11.00;99.90;;;;;;4943711;28;20043;-59
2022/03/29 11:40:41;;;;;;;22.30;8.30;;;10.90;99.50;;;;;;4936775;28;20146;-61
2022/03/29 11:43:11;;;;;;;26.08;8.65;;;10.70;99.90;;;;;;4936009;28;20497;-61
2022/03/29 11:45:47;;;;;;;26.33;8.23;;;10.60;99.90;;;;;;4941830;28;20486;-61
2022/03/29 11:48:14;;;;;;;29.90;9.10;;;10.60;99.90;;;;;;4958061;28;20043;-60
2022/03/29 11:50:49;;;;;;;21.95;8.15;;;10.50;99.90;;;;;;4932772;28;20065;-60
2022/03/29 11:53:16;;;;;;;30.98;8.57;;;10.40;99.90;;;;;;4943209;28;20047;-61
2022/03/29 11:55:42;;;;;;;23.23;8.48;;;10.40;99.90;;;;;;4940039;28;20149;-60
2022/03/29 11:58:35;;;;;;;29.75;8.80;;;10.50;99.90;;;;;;4942624;28;20381;-60
2022/03/29 12:01:13;;;;;;;24.15;8.65;;;10.50;99.90;;;;;;4949520;28;20124;-60
2022/03/29 12:03:40;;;;;;;24.25;8.30;;;10.50;99.90;;;;;;4926521;28;20047;-60
2022/03/29 12:06:18;;;;;;;25.38;7.57;;;10.50;99.90;;;;;;4942596;28;20172;-61
2022/03/29 12:08:50;;;;;;;21.77;7.85;;;10.50;99.70;;;;;;4948606;28;20122;-62
2022/03/29 12:11:22;;;;;;;22.38;7.63;;;10.60;99.80;;;;;;4944712;28;20043;-59
2022/03/29 12:13:59;;;;;;;32.97;8.98;;;10.60;99.90;;;;;;4935734;28;20054;-61
2022/03/29 12:16:26;;;;;;;27.05;8.23;;;10.70;99.80;;;;;;4934602;28;20513;-61
2022/03/29 12:18:52;;;;;;;25.85;8.68;;;10.70;99.50;;;;;;4942107;28;20746;-59
2022/03/29 12:21:21;;;;;;;21.77;8.23;;;10.70;99.40;;;;;;4940845;28;20055;-60
2022/03/29 12:23:48;;;;;;;26.92;8.73;;;10.90;99.50;;;;;;4947384;28;20098;-60
2022/03/29 12:26:17;;;;;;;31.73;9.18;;;11.00;99.40;;;;;;4930397;28;20039;-60
2022/03/29 12:28:45;;;;;;;23.92;8.75;;;11.00;99.00;;;;;;4941213;28;20058;-60
2022/03/29 12:31:16;;;;;;;25.45;8.90;;;11.00;99.00;;;;;;4945513;28;20055;-62
2022/03/29 12:33:43;;;;;;;27.85;9.27;;;11.10;99.00;;;;;;4948832;28;20043;-61
2022/03/29 12:36:14;;;;;;;22.35;9.52;;;11.10;99.00;;;;;;4950178;28;20058;-60
2022/03/29 12:39:05;;;;;;;22.60;9.35;;;11.30;98.90;;;;;;4968213;28;20125;-59
2022/03/29 12:42:04;;;;;;;26.30;10.02;;;11.30;99.10;;;;;;4947226;28;20078;-60
2022/03/29 12:44:43;;;;;;;25.75;9.98;;;11.50;97.90;;;;;;4908828;28;20125;-61
2022/03/29 12:47:10;;;;;;;28.23;10.85;;;11.50;97.80;;;;;;4934975;28;20107;-61
2022/03/29 12:49:37;;;;;;;23.23;10.55;;;11.70;97.50;;;;;;4948081;28;20035;-61
2022/03/29 12:52:05;;;;;;;25.48;10.55;;;12.00;97.40;;;;;;4943000;28;20154;-61
2022/03/29 12:54:41;;;;;;;28.05;11.05;;;12.20;97.10;;;;;;4941433;28;20049;-60
2022/03/29 12:57:09;;;;;;;25.30;10.52;;;12.20;96.00;;;;;;4936277;28;20776;-60
2022/03/29 12:59:38;;;;;;;27.80;10.70;;;12.10;95.70;;;;;;4946456;28;20044;-62